sensor_id;sensor_type;location;lat;lon;timestamp;P1;durP1;ratioP1;P2;durP2;ratioP2
25279;SDS011;13225;47.804;12.116;2023-09-19T00:02:02;1.33;;;1.13;;
25279;SDS011;13225;47.804;12.116;2023-09-19T00:04:34;1.65;;;1.20;;
25279;SDS011;13225;47.804;12.116;2023-09-19T00:07:04;1.13;;;0.93;;
25279;SDS011;13225;47.804;12.116;2023-09-19T00:09:30;1.80;;;1.20;;
25279;SDS011;13225;47.804;12.116;2023-09-19T00:12:02;2.40;;;1.48;;
25279;SDS011;13225;47.804;12.116;2023-09-19T00:14:31;1.52;;;1.10;;
25279;SDS011;13225;47.804;12.116;2023-09-19T00:17:00;2.22;;;1.27;;
25279;SDS011;13225;47.804;12.116;2023-09-19T00:19:33;1.80;;;1.10;;
25279;SDS011;13225;47.804;12.116;2023-09-19T00:22:02;3.47;;;1.10;;
25279;SDS011;13225;47.804;12.116;2023-09-19T00:24:28;2.25;;;1.38;;
25279;SDS011;13225;47.804;12.116;2023-09-19T00:26:54;1.48;;;1.02;;
25279;SDS011;13225;47.804;12.116;2023-09-19T00:29:20;1.90;;;1.25;;
25279;SDS011;13225;47.804;12.116;2023-09-19T00:31:48;2.63;;;1.38;;
25279;SDS011;13225;47.804;12.116;2023-09-19T00:34:14;1.63;;;1.00;;
25279;SDS011;13225;47.804;12.116;2023-09-19T00:36:41;2.63;;;1.10;;
25279;SDS011;13225;47.804;12.116;2023-09-19T00:39:08;6.85;;;2.30;;
25279;SDS011;13225;47.804;12.116;2023-09-19T00:41:35;1.95;;;1.30;;
25279;SDS011;13225;47.804;12.116;2023-09-19T00:44:01;3.17;;;1.60;;
25279;SDS011;13225;47.804;12.116;2023-09-19T00:46:28;1.65;;;1.23;;
25279;SDS011;13225;47.804;12.116;2023-09-19T00:48:55;3.95;;;1.30;;
25279;SDS011;13225;47.804;12.116;2023-09-19T00:51:22;1.75;;;1.20;;
25279;SDS011;13225;47.804;12.116;2023-09-19T00:53:50;2.42;;;1.40;;
25279;SDS011;13225;47.804;12.116;2023-09-19T00:56:17;1.20;;;1.10;;
25279;SDS011;13225;47.804;12.116;2023-09-19T00:58:44;2.00;;;1.20;;
25279;SDS011;13225;47.804;12.116;2023-09-19T01:01:11;2.15;;;1.10;;
25279;SDS011;13225;47.804;12.116;2023-09-19T01:03:40;2.45;;;1.17;;
25279;SDS011;13225;47.804;12.116;2023-09-19T01:06:07;1.77;;;1.00;;
25279;SDS011;13225;47.804;12.116;2023-09-19T01:08:34;2.88;;;1.15;;
25279;SDS011;13225;47.804;12.116;2023-09-19T01:11:01;1.67;;;1.10;;
25279;SDS011;13225;47.804;12.116;2023-09-19T01:16:36;2.92;;;1.38;;
25279;SDS011;13225;47.804;12.116;2023-09-19T01:19:24;1.40;;;1.30;;
25279;SDS011;13225;47.804;12.116;2023-09-19T01:30:49;1.65;;;1.20;;
25279;SDS011;13225;47.804;12.116;2023-09-19T01:33:23;1.33;;;1.20;;
25279;SDS011;13225;47.804;12.116;2023-09-19T01:35:48;2.05;;;1.40;;
25279;SDS011;13225;47.804;12.116;2023-09-19T01:38:17;1.40;;;1.23;;
25279;SDS011;13225;47.804;12.116;2023-09-19T01:40:46;2.72;;;1.58;;
25279;SDS011;13225;47.804;12.116;2023-09-19T01:43:26;2.00;;;1.30;;
25279;SDS011;13225;47.804;12.116;2023-09-19T01:48:40;2.45;;;1.50;;
25279;SDS011;13225;47.804;12.116;2023-09-19T01:51:13;3.17;;;1.55;;
25279;SDS011;13225;47.804;12.116;2023-09-19T01:54:08;3.72;;;1.80;;
25279;SDS011;13225;47.804;12.116;2023-09-19T01:56:44;2.70;;;1.45;;
25279;SDS011;13225;47.804;12.116;2023-09-19T01:59:16;1.90;;;1.60;;
25279;SDS011;13225;47.804;12.116;2023-09-19T02:01:48;3.00;;;1.70;;
25279;SDS011;13225;47.804;12.116;2023-09-19T02:04:17;3.40;;;1.60;;
25279;SDS011;13225;47.804;12.116;2023-09-19T02:06:42;2.88;;;1.70;;
25279;SDS011;13225;47.804;12.116;2023-09-19T02:09:08;2.20;;;1.90;;
25279;SDS011;13225;47.804;12.116;2023-09-19T02:11:36;2.17;;;1.80;;
25279;SDS011;13225;47.804;12.116;2023-09-19T02:14:03;2.88;;;1.50;;
25279;SDS011;13225;47.804;12.116;2023-09-19T02:16:33;2.85;;;1.77;;
25279;SDS011;13225;47.804;12.116;2023-09-19T02:18:59;2.60;;;2.00;;
25279;SDS011;13225;47.804;12.116;2023-09-19T02:21:25;2.65;;;1.90;;
25279;SDS011;13225;47.804;12.116;2023-09-19T02:23:54;2.38;;;2.00;;
25279;SDS011;13225;47.804;12.116;2023-09-19T02:26:20;2.20;;;2.00;;
25279;SDS011;13225;47.804;12.116;2023-09-19T02:28:47;4.40;;;2.40;;
25279;SDS011;13225;47.804;12.116;2023-09-19T02:31:12;2.60;;;1.92;;
25279;SDS011;13225;47.804;12.116;2023-09-19T02:33:38;2.72;;;1.80;;
25279;SDS011;13225;47.804;12.116;2023-09-19T02:36:04;2.33;;;1.77;;
25279;SDS011;13225;47.804;12.116;2023-09-19T02:38:30;3.55;;;2.28;;
25279;SDS011;13225;47.804;12.116;2023-09-19T02:40:56;2.67;;;2.10;;
25279;SDS011;13225;47.804;12.116;2023-09-19T02:43:22;3.20;;;2.10;;
25279;SDS011;13225;47.804;12.116;2023-09-19T02:45:48;3.88;;;2.10;;
25279;SDS011;13225;47.804;12.116;2023-09-19T02:48:24;2.05;;;1.90;;
25279;SDS011;13225;47.804;12.116;2023-09-19T02:50:50;2.47;;;2.28;;
25279;SDS011;13225;47.804;12.116;2023-09-19T02:53:17;4.18;;;2.30;;
25279;SDS011;13225;47.804;12.116;2023-09-19T02:55:43;3.55;;;2.47;;
25279;SDS011;13225;47.804;12.116;2023-09-19T02:58:08;2.72;;;2.53;;
25279;SDS011;13225;47.804;12.116;2023-09-19T03:00:36;4.70;;;2.70;;
25279;SDS011;13225;47.804;12.116;2023-09-19T03:03:02;3.15;;;2.75;;
25279;SDS011;13225;47.804;12.116;2023-09-19T03:05:28;4.57;;;2.70;;
25279;SDS011;13225;47.804;12.116;2023-09-19T03:07:55;2.92;;;2.63;;
25279;SDS011;13225;47.804;12.116;2023-09-19T03:10:21;5.63;;;2.70;;
25279;SDS011;13225;47.804;12.116;2023-09-19T03:12:51;3.45;;;2.45;;
25279;SDS011;13225;47.804;12.116;2023-09-19T03:15:16;3.35;;;2.30;;
25279;SDS011;13225;47.804;12.116;2023-09-19T03:17:46;2.67;;;2.38;;
25279;SDS011;13225;47.804;12.116;2023-09-19T03:20:13;4.82;;;2.40;;
25279;SDS011;13225;47.804;12.116;2023-09-19T03:22:39;3.40;;;2.25;;
25279;SDS011;13225;47.804;12.116;2023-09-19T03:25:05;3.55;;;2.30;;
25279;SDS011;13225;47.804;12.116;2023-09-19T03:27:36;3.25;;;2.17;;
25279;SDS011;13225;47.804;12.116;2023-09-19T03:30:02;5.15;;;2.25;;
25279;SDS011;13225;47.804;12.116;2023-09-19T03:32:33;3.42;;;2.33;;
25279;SDS011;13225;47.804;12.116;2023-09-19T03:35:08;2.40;;;1.95;;
25279;SDS011;13225;47.804;12.116;2023-09-19T03:37:36;2.55;;;2.35;;
25279;SDS011;13225;47.804;12.116;2023-09-19T03:40:01;3.38;;;2.17;;
25279;SDS011;13225;47.804;12.116;2023-09-19T03:42:30;2.13;;;1.92;;
25279;SDS011;13225;47.804;12.116;2023-09-19T03:44:56;2.58;;;1.83;;
25279;SDS011;13225;47.804;12.116;2023-09-19T03:47:22;2.45;;;2.00;;
25279;SDS011;13225;47.804;12.116;2023-09-19T03:49:47;3.67;;;1.98;;
25279;SDS011;13225;47.804;12.116;2023-09-19T03:52:13;2.22;;;1.98;;
25279;SDS011;13225;47.804;12.116;2023-09-19T03:54:40;2.95;;;1.80;;
25279;SDS011;13225;47.804;12.116;2023-09-19T03:57:06;2.03;;;1.67;;
25279;SDS011;13225;47.804;12.116;2023-09-19T03:59:32;2.15;;;1.85;;
25279;SDS011;13225;47.804;12.116;2023-09-19T04:01:58;3.60;;;2.10;;
25279;SDS011;13225;47.804;12.116;2023-09-19T04:04:24;2.90;;;1.88;;
25279;SDS011;13225;47.804;12.116;2023-09-19T04:06:53;3.45;;;2.13;;
25279;SDS011;13225;47.804;12.116;2023-09-19T04:09:19;3.28;;;2.30;;
25279;SDS011;13225;47.804;12.116;2023-09-19T04:11:44;4.55;;;2.30;;
25279;SDS011;13225;47.804;12.116;2023-09-19T04:14:10;2.85;;;2.20;;
25279;SDS011;13225;47.804;12.116;2023-09-19T04:16:36;2.70;;;1.98;;
25279;SDS011;13225;47.804;12.116;2023-09-19T04:19:02;4.65;;;2.47;;
25279;SDS011;13225;47.804;12.116;2023-09-19T04:21:28;3.53;;;2.38;;
25279;SDS011;13225;47.804;12.116;2023-09-19T04:23:55;3.00;;;2.40;;
25279;SDS011;13225;47.804;12.116;2023-09-19T04:26:21;3.78;;;2.42;;
25279;SDS011;13225;47.804;12.116;2023-09-19T04:28:46;4.68;;;2.47;;
25279;SDS011;13225;47.804;12.116;2023-09-19T04:31:12;3.15;;;2.30;;
25279;SDS011;13225;47.804;12.116;2023-09-19T04:33:39;4.57;;;3.30;;
25279;SDS011;13225;47.804;12.116;2023-09-19T04:36:04;3.63;;;2.33;;
25279;SDS011;13225;47.804;12.116;2023-09-19T04:38:34;3.03;;;2.33;;
25279;SDS011;13225;47.804;12.116;2023-09-19T04:41:00;3.85;;;2.67;;
25279;SDS011;13225;47.804;12.116;2023-09-19T04:43:26;3.05;;;2.50;;
25279;SDS011;13225;47.804;12.116;2023-09-19T04:45:51;6.22;;;2.80;;
25279;SDS011;13225;47.804;12.116;2023-09-19T04:48:21;2.58;;;2.30;;
25279;SDS011;13225;47.804;12.116;2023-09-19T04:50:49;2.58;;;2.15;;
25279;SDS011;13225;47.804;12.116;2023-09-19T04:53:15;4.05;;;2.40;;
25279;SDS011;13225;47.804;12.116;2023-09-19T04:55:42;3.50;;;2.20;;
25279;SDS011;13225;47.804;12.116;2023-09-19T04:58:08;4.07;;;2.20;;
25279;SDS011;13225;47.804;12.116;2023-09-19T05:00:34;4.35;;;2.47;;
25279;SDS011;13225;47.804;12.116;2023-09-19T05:03:00;4.13;;;2.20;;
25279;SDS011;13225;47.804;12.116;2023-09-19T05:05:26;2.67;;;2.15;;
25279;SDS011;13225;47.804;12.116;2023-09-19T05:07:52;3.08;;;2.20;;
25279;SDS011;13225;47.804;12.116;2023-09-19T05:10:19;3.90;;;2.20;;
25279;SDS011;13225;47.804;12.116;2023-09-19T05:12:45;4.18;;;2.00;;
25279;SDS011;13225;47.804;12.116;2023-09-19T05:15:12;2.00;;;1.80;;
25279;SDS011;13225;47.804;12.116;2023-09-19T05:17:40;3.30;;;2.00;;
25279;SDS011;13225;47.804;12.116;2023-09-19T05:20:06;2.35;;;2.13;;
25279;SDS011;13225;47.804;12.116;2023-09-19T05:22:41;4.85;;;2.80;;
25279;SDS011;13225;47.804;12.116;2023-09-19T05:25:08;4.82;;;2.00;;
25279;SDS011;13225;47.804;12.116;2023-09-19T05:27:41;2.40;;;2.08;;
25279;SDS011;13225;47.804;12.116;2023-09-19T05:30:07;4.25;;;2.47;;
25279;SDS011;13225;47.804;12.116;2023-09-19T05:32:33;5.18;;;2.00;;
25279;SDS011;13225;47.804;12.116;2023-09-19T05:34:59;5.30;;;2.22;;
25279;SDS011;13225;47.804;12.116;2023-09-19T05:37:25;2.63;;;2.08;;
25279;SDS011;13225;47.804;12.116;2023-09-19T05:39:51;4.68;;;2.60;;
25279;SDS011;13225;47.804;12.116;2023-09-19T05:42:18;2.42;;;2.10;;
25279;SDS011;13225;47.804;12.116;2023-09-19T05:44:44;3.05;;;2.17;;
25279;SDS011;13225;47.804;12.116;2023-09-19T05:47:09;2.22;;;2.03;;
25279;SDS011;13225;47.804;12.116;2023-09-19T05:49:38;2.20;;;1.88;;
25279;SDS011;13225;47.804;12.116;2023-09-19T05:52:06;2.95;;;1.98;;
25279;SDS011;13225;47.804;12.116;2023-09-19T05:54:32;6.90;;;2.05;;
25279;SDS011;13225;47.804;12.116;2023-09-19T05:56:59;2.22;;;2.03;;
25279;SDS011;13225;47.804;12.116;2023-09-19T05:59:25;3.28;;;1.98;;
25279;SDS011;13225;47.804;12.116;2023-09-19T06:01:51;3.88;;;2.08;;
25279;SDS011;13225;47.804;12.116;2023-09-19T06:04:17;3.10;;;1.92;;
25279;SDS011;13225;47.804;12.116;2023-09-19T06:06:44;6.40;;;2.35;;
25279;SDS011;13225;47.804;12.116;2023-09-19T06:09:10;1.83;;;1.70;;
25279;SDS011;13225;47.804;12.116;2023-09-19T06:11:36;2.92;;;1.77;;
25279;SDS011;13225;47.804;12.116;2023-09-19T06:14:02;2.65;;;1.80;;
25279;SDS011;13225;47.804;12.116;2023-09-19T06:16:29;2.47;;;1.60;;
25279;SDS011;13225;47.804;12.116;2023-09-19T06:18:58;2.45;;;2.25;;
25279;SDS011;13225;47.804;12.116;2023-09-19T06:21:27;3.30;;;1.90;;
25279;SDS011;13225;47.804;12.116;2023-09-19T06:23:53;2.83;;;2.00;;
25279;SDS011;13225;47.804;12.116;2023-09-19T06:26:19;3.53;;;3.22;;
25279;SDS011;13225;47.804;12.116;2023-09-19T06:28:45;2.65;;;1.88;;
25279;SDS011;13225;47.804;12.116;2023-09-19T06:31:11;5.22;;;2.15;;
25279;SDS011;13225;47.804;12.116;2023-09-19T06:33:38;3.05;;;2.10;;
25279;SDS011;13225;47.804;12.116;2023-09-19T06:36:05;3.97;;;2.15;;
25279;SDS011;13225;47.804;12.116;2023-09-19T06:38:31;3.00;;;2.00;;
25279;SDS011;13225;47.804;12.116;2023-09-19T06:41:04;3.10;;;1.88;;
25279;SDS011;13225;47.804;12.116;2023-09-19T06:43:30;4.15;;;2.20;;
25279;SDS011;13225;47.804;12.116;2023-09-19T06:45:59;4.40;;;2.17;;
25279;SDS011;13225;47.804;12.116;2023-09-19T06:48:25;2.35;;;2.05;;
25279;SDS011;13225;47.804;12.116;2023-09-19T06:50:55;3.15;;;2.20;;
25279;SDS011;13225;47.804;12.116;2023-09-19T06:53:23;4.13;;;1.70;;
25279;SDS011;13225;47.804;12.116;2023-09-19T06:55:52;3.65;;;1.92;;
25279;SDS011;13225;47.804;12.116;2023-09-19T06:58:19;4.03;;;1.73;;
25279;SDS011;13225;47.804;12.116;2023-09-19T07:00:45;4.00;;;1.80;;
25279;SDS011;13225;47.804;12.116;2023-09-19T07:03:13;2.40;;;1.63;;
25279;SDS011;13225;47.804;12.116;2023-09-19T07:05:41;3.50;;;1.92;;
25279;SDS011;13225;47.804;12.116;2023-09-19T07:08:08;2.65;;;1.80;;
25279;SDS011;13225;47.804;12.116;2023-09-19T07:10:37;5.03;;;2.15;;
25279;SDS011;13225;47.804;12.116;2023-09-19T07:13:06;2.15;;;1.70;;
25279;SDS011;13225;47.804;12.116;2023-09-19T07:15:34;2.85;;;1.80;;
25279;SDS011;13225;47.804;12.116;2023-09-19T07:18:11;4.32;;;1.90;;
25279;SDS011;13225;47.804;12.116;2023-09-19T07:20:44;2.13;;;1.70;;
25279;SDS011;13225;47.804;12.116;2023-09-19T07:23:14;2.28;;;1.88;;
25279;SDS011;13225;47.804;12.116;2023-09-19T07:25:44;2.45;;;1.67;;
25279;SDS011;13225;47.804;12.116;2023-09-19T07:28:11;1.65;;;1.55;;
25279;SDS011;13225;47.804;12.116;2023-09-19T07:30:37;2.17;;;1.50;;
25279;SDS011;13225;47.804;12.116;2023-09-19T07:33:04;2.58;;;1.80;;
25279;SDS011;13225;47.804;12.116;2023-09-19T07:35:31;3.20;;;1.80;;
25279;SDS011;13225;47.804;12.116;2023-09-19T07:37:56;2.40;;;1.65;;
25279;SDS011;13225;47.804;12.116;2023-09-19T07:40:23;2.80;;;1.85;;
25279;SDS011;13225;47.804;12.116;2023-09-19T07:42:51;2.60;;;1.60;;
25279;SDS011;13225;47.804;12.116;2023-09-19T07:45:18;1.60;;;1.50;;
25279;SDS011;13225;47.804;12.116;2023-09-19T07:47:44;2.65;;;1.60;;
25279;SDS011;13225;47.804;12.116;2023-09-19T07:50:14;3.90;;;1.58;;
25279;SDS011;13225;47.804;12.116;2023-09-19T07:52:41;7.15;;;1.70;;
25279;SDS011;13225;47.804;12.116;2023-09-19T07:55:08;6.75;;;1.60;;
25279;SDS011;13225;47.804;12.116;2023-09-19T07:57:39;2.75;;;1.65;;
25279;SDS011;13225;47.804;12.116;2023-09-19T08:00:09;3.08;;;1.50;;
25279;SDS011;13225;47.804;12.116;2023-09-19T08:02:36;4.13;;;1.98;;
25279;SDS011;13225;47.804;12.116;2023-09-19T08:05:08;1.98;;;1.48;;
25279;SDS011;13225;47.804;12.116;2023-09-19T08:07:38;1.95;;;1.80;;
25279;SDS011;13225;47.804;12.116;2023-09-19T08:10:05;2.50;;;1.50;;
25279;SDS011;13225;47.804;12.116;2023-09-19T08:12:46;2.30;;;2.00;;
25279;SDS011;13225;47.804;12.116;2023-09-19T08:15:17;1.73;;;1.50;;
25279;SDS011;13225;47.804;12.116;2023-09-19T08:17:44;2.35;;;1.30;;
25279;SDS011;13225;47.804;12.116;2023-09-19T08:20:11;2.75;;;1.50;;
25279;SDS011;13225;47.804;12.116;2023-09-19T08:22:50;2.53;;;1.67;;
25279;SDS011;13225;47.804;12.116;2023-09-19T08:25:21;3.42;;;2.00;;
25279;SDS011;13225;47.804;12.116;2023-09-19T08:30:23;5.72;;;2.08;;
25279;SDS011;13225;47.804;12.116;2023-09-19T08:32:59;2.35;;;1.63;;
25279;SDS011;13225;47.804;12.116;2023-09-19T08:35:29;1.90;;;1.80;;
25279;SDS011;13225;47.804;12.116;2023-09-19T08:37:55;2.10;;;1.50;;
25279;SDS011;13225;47.804;12.116;2023-09-19T08:40:21;2.95;;;1.40;;
25279;SDS011;13225;47.804;12.116;2023-09-19T08:42:51;2.00;;;1.77;;
25279;SDS011;13225;47.804;12.116;2023-09-19T08:45:22;4.53;;;1.65;;
25279;SDS011;13225;47.804;12.116;2023-09-19T08:48:32;4.00;;;1.50;;
25279;SDS011;13225;47.804;12.116;2023-09-19T08:50:43;3.47;;;1.80;;
25279;SDS011;13225;47.804;12.116;2023-09-19T08:53:16;1.65;;;1.55;;
25279;SDS011;13225;47.804;12.116;2023-09-19T08:56:03;1.60;;;1.40;;
25279;SDS011;13225;47.804;12.116;2023-09-19T08:58:34;3.50;;;1.70;;
25279;SDS011;13225;47.804;12.116;2023-09-19T09:01:09;2.28;;;1.70;;
25279;SDS011;13225;47.804;12.116;2023-09-19T09:03:40;1.35;;;1.25;;
25279;SDS011;13225;47.804;12.116;2023-09-19T09:06:08;3.05;;;1.90;;
25279;SDS011;13225;47.804;12.116;2023-09-19T09:08:40;5.25;;;2.08;;
25279;SDS011;13225;47.804;12.116;2023-09-19T09:11:08;1.83;;;1.30;;
25279;SDS011;13225;47.804;12.116;2023-09-19T09:13:35;2.80;;;1.40;;
25279;SDS011;13225;47.804;12.116;2023-09-19T09:16:05;3.55;;;1.40;;
25279;SDS011;13225;47.804;12.116;2023-09-19T09:18:31;1.33;;;1.23;;
25279;SDS011;13225;47.804;12.116;2023-09-19T09:20:56;2.58;;;1.65;;
25279;SDS011;13225;47.804;12.116;2023-09-19T09:23:22;1.80;;;1.60;;
25279;SDS011;13225;47.804;12.116;2023-09-19T09:25:54;4.30;;;2.38;;
25279;SDS011;13225;47.804;12.116;2023-09-19T09:28:31;2.35;;;2.15;;
25279;SDS011;13225;47.804;12.116;2023-09-19T09:31:01;4.88;;;1.55;;
25279;SDS011;13225;47.804;12.116;2023-09-19T09:33:40;1.45;;;1.30;;
25279;SDS011;13225;47.804;12.116;2023-09-19T09:36:08;2.63;;;1.73;;
25279;SDS011;13225;47.804;12.116;2023-09-19T09:38:47;1.80;;;1.20;;
25279;SDS011;13225;47.804;12.116;2023-09-19T09:41:15;2.28;;;1.30;;
25279;SDS011;13225;47.804;12.116;2023-09-19T09:43:52;1.48;;;1.30;;
25279;SDS011;13225;47.804;12.116;2023-09-19T09:46:19;3.55;;;1.13;;
25279;SDS011;13225;47.804;12.116;2023-09-19T09:51:39;4.88;;;2.17;;
25279;SDS011;13225;47.804;12.116;2023-09-19T09:54:11;2.28;;;1.33;;
25279;SDS011;13225;47.804;12.116;2023-09-19T09:56:51;2.58;;;1.30;;
25279;SDS011;13225;47.804;12.116;2023-09-19T09:59:30;3.30;;;1.50;;
25279;SDS011;13225;47.804;12.116;2023-09-19T10:02:28;2.67;;;1.30;;
25279;SDS011;13225;47.804;12.116;2023-09-19T10:04:58;1.30;;;1.20;;
25279;SDS011;13225;47.804;12.116;2023-09-19T10:07:32;1.08;;;0.98;;
25279;SDS011;13225;47.804;12.116;2023-09-19T10:10:01;1.20;;;1.08;;
25279;SDS011;13225;47.804;12.116;2023-09-19T10:12:48;1.20;;;1.10;;
25279;SDS011;13225;47.804;12.116;2023-09-19T10:15:15;1.55;;;1.20;;
25279;SDS011;13225;47.804;12.116;2023-09-19T10:17:45;2.88;;;1.83;;
25279;SDS011;13225;47.804;12.116;2023-09-19T10:20:17;3.38;;;1.27;;
25279;SDS011;13225;47.804;12.116;2023-09-19T10:22:52;1.75;;;1.00;;
25279;SDS011;13225;47.804;12.116;2023-09-19T10:25:26;2.28;;;1.52;;
25279;SDS011;13225;47.804;12.116;2023-09-19T10:28:17;2.15;;;1.13;;
25279;SDS011;13225;47.804;12.116;2023-09-19T10:30:47;1.63;;;1.10;;
25279;SDS011;13225;47.804;12.116;2023-09-19T10:33:23;1.33;;;1.13;;
25279;SDS011;13225;47.804;12.116;2023-09-19T10:35:54;2.83;;;1.30;;
25279;SDS011;13225;47.804;12.116;2023-09-19T10:38:25;2.67;;;1.10;;
25279;SDS011;13225;47.804;12.116;2023-09-19T10:40:53;1.20;;;1.10;;
25279;SDS011;13225;47.804;12.116;2023-09-19T10:43:25;4.15;;;1.13;;
25279;SDS011;13225;47.804;12.116;2023-09-19T10:45:55;2.30;;;0.98;;
25279;SDS011;13225;47.804;12.116;2023-09-19T10:48:31;1.42;;;1.33;;
25279;SDS011;13225;47.804;12.116;2023-09-19T10:50:59;4.28;;;2.03;;
25279;SDS011;13225;47.804;12.116;2023-09-19T10:53:40;3.28;;;1.33;;
25279;SDS011;13225;47.804;12.116;2023-09-19T10:56:34;2.55;;;1.20;;
25279;SDS011;13225;47.804;12.116;2023-09-19T10:59:20;1.95;;;1.10;;
25279;SDS011;13225;47.804;12.116;2023-09-19T11:01:51;3.85;;;1.38;;
25279;SDS011;13225;47.804;12.116;2023-09-19T11:04:28;1.52;;;1.20;;
25279;SDS011;13225;47.804;12.116;2023-09-19T11:07:06;1.45;;;1.30;;
25279;SDS011;13225;47.804;12.116;2023-09-19T11:12:11;2.05;;;1.40;;
25279;SDS011;13225;47.804;12.116;2023-09-19T11:15:01;1.05;;;0.90;;
25279;SDS011;13225;47.804;12.116;2023-09-19T11:30:38;1.70;;;0.93;;
25279;SDS011;13225;47.804;12.116;2023-09-19T11:35:58;1.02;;;0.80;;
25279;SDS011;13225;47.804;12.116;2023-09-19T11:43:54;1.35;;;0.70;;
25279;SDS011;13225;47.804;12.116;2023-09-19T11:49:17;1.98;;;0.93;;
25279;SDS011;13225;47.804;12.116;2023-09-19T11:51:50;0.65;;;0.65;;
25279;SDS011;13225;47.804;12.116;2023-09-19T11:54:16;2.08;;;0.63;;
25279;SDS011;13225;47.804;12.116;2023-09-19T11:56:44;1.15;;;0.75;;
25279;SDS011;13225;47.804;12.116;2023-09-19T11:59:13;0.95;;;0.85;;
25279;SDS011;13225;47.804;12.116;2023-09-19T12:01:52;1.42;;;0.70;;
25279;SDS011;13225;47.804;12.116;2023-09-19T12:07:10;1.10;;;0.77;;
25279;SDS011;13225;47.804;12.116;2023-09-19T12:09:47;3.95;;;0.70;;
25279;SDS011;13225;47.804;12.116;2023-09-19T12:12:25;0.80;;;0.50;;
25279;SDS011;13225;47.804;12.116;2023-09-19T12:14:58;1.55;;;0.73;;
25279;SDS011;13225;47.804;12.116;2023-09-19T12:17:40;0.77;;;0.77;;
25279;SDS011;13225;47.804;12.116;2023-09-19T12:20:10;1.25;;;0.85;;
25279;SDS011;13225;47.804;12.116;2023-09-19T12:25:08;0.88;;;0.82;;
25279;SDS011;13225;47.804;12.116;2023-09-19T12:27:46;1.45;;;0.80;;
25279;SDS011;13225;47.804;12.116;2023-09-19T12:30:13;1.15;;;0.80;;
25279;SDS011;13225;47.804;12.116;2023-09-19T12:32:46;0.98;;;0.82;;
25279;SDS011;13225;47.804;12.116;2023-09-19T12:35:30;1.55;;;0.80;;
25279;SDS011;13225;47.804;12.116;2023-09-19T12:38:00;0.70;;;0.68;;
25279;SDS011;13225;47.804;12.116;2023-09-19T12:40:26;0.75;;;0.60;;
25279;SDS011;13225;47.804;12.116;2023-09-19T12:42:58;1.10;;;0.60;;
25279;SDS011;13225;47.804;12.116;2023-09-19T12:45:24;0.93;;;0.50;;
25279;SDS011;13225;47.804;12.116;2023-09-19T12:51:04;1.05;;;0.73;;
25279;SDS011;13225;47.804;12.116;2023-09-19T12:53:40;1.20;;;0.77;;
25279;SDS011;13225;47.804;12.116;2023-09-19T12:56:12;0.93;;;0.75;;
25279;SDS011;13225;47.804;12.116;2023-09-19T12:58:52;0.93;;;0.70;;
25279;SDS011;13225;47.804;12.116;2023-09-19T13:01:21;0.90;;;0.90;;
25279;SDS011;13225;47.804;12.116;2023-09-19T13:06:47;1.05;;;0.73;;
25279;SDS011;13225;47.804;12.116;2023-09-19T13:09:14;0.70;;;0.70;;
25279;SDS011;13225;47.804;12.116;2023-09-19T13:11:41;2.22;;;0.57;;
25279;SDS011;13225;47.804;12.116;2023-09-19T13:19:39;0.60;;;0.60;;
25279;SDS011;13225;47.804;12.116;2023-09-19T13:22:35;0.68;;;0.60;;
25279;SDS011;13225;47.804;12.116;2023-09-19T13:25:08;1.13;;;0.68;;
25279;SDS011;13225;47.804;12.116;2023-09-19T13:27:39;1.27;;;0.60;;
25279;SDS011;13225;47.804;12.116;2023-09-19T13:30:06;1.08;;;0.82;;
25279;SDS011;13225;47.804;12.116;2023-09-19T13:32:32;0.98;;;0.80;;
25279;SDS011;13225;47.804;12.116;2023-09-19T13:34:58;1.00;;;0.60;;
25279;SDS011;13225;47.804;12.116;2023-09-19T13:37:24;1.17;;;0.68;;
25279;SDS011;13225;47.804;12.116;2023-09-19T13:39:51;0.77;;;0.60;;
25279;SDS011;13225;47.804;12.116;2023-09-19T13:42:17;0.60;;;0.60;;
25279;SDS011;13225;47.804;12.116;2023-09-19T13:44:43;1.00;;;0.63;;
25279;SDS011;13225;47.804;12.116;2023-09-19T13:47:09;0.68;;;0.52;;
25279;SDS011;13225;47.804;12.116;2023-09-19T13:49:35;1.30;;;0.60;;
25279;SDS011;13225;47.804;12.116;2023-09-19T13:52:02;0.77;;;0.50;;
25279;SDS011;13225;47.804;12.116;2023-09-19T13:54:32;1.42;;;0.55;;
25279;SDS011;13225;47.804;12.116;2023-09-19T13:56:57;0.40;;;0.30;;
25279;SDS011;13225;47.804;12.116;2023-09-19T13:59:23;1.45;;;0.70;;
25279;SDS011;13225;47.804;12.116;2023-09-19T14:01:49;1.20;;;0.90;;
25279;SDS011;13225;47.804;12.116;2023-09-19T14:04:15;1.45;;;0.80;;
25279;SDS011;13225;47.804;12.116;2023-09-19T14:06:42;0.60;;;0.60;;
25279;SDS011;13225;47.804;12.116;2023-09-19T14:09:08;1.77;;;0.63;;
25279;SDS011;13225;47.804;12.116;2023-09-19T14:11:35;0.50;;;0.50;;
25279;SDS011;13225;47.804;12.116;2023-09-19T14:14:01;0.60;;;0.60;;
25279;SDS011;13225;47.804;12.116;2023-09-19T14:16:26;1.35;;;0.75;;
25279;SDS011;13225;47.804;12.116;2023-09-19T14:18:55;0.80;;;0.75;;
25279;SDS011;13225;47.804;12.116;2023-09-19T14:21:20;2.03;;;0.55;;
25279;SDS011;13225;47.804;12.116;2023-09-19T14:23:46;0.60;;;0.57;;
25279;SDS011;13225;47.804;12.116;2023-09-19T14:26:12;2.13;;;1.13;;
25279;SDS011;13225;47.804;12.116;2023-09-19T14:28:37;0.75;;;0.75;;
25279;SDS011;13225;47.804;12.116;2023-09-19T14:31:12;1.23;;;0.60;;
25279;SDS011;13225;47.804;12.116;2023-09-19T14:33:38;1.20;;;0.60;;
25279;SDS011;13225;47.804;12.116;2023-09-19T14:36:04;0.80;;;0.80;;
25279;SDS011;13225;47.804;12.116;2023-09-19T14:38:35;0.90;;;0.60;;
25279;SDS011;13225;47.804;12.116;2023-09-19T14:41:02;1.13;;;0.63;;
25279;SDS011;13225;47.804;12.116;2023-09-19T14:43:28;1.17;;;0.80;;
25279;SDS011;13225;47.804;12.116;2023-09-19T14:45:55;1.65;;;1.00;;
25279;SDS011;13225;47.804;12.116;2023-09-19T14:48:22;4.28;;;0.80;;
25279;SDS011;13225;47.804;12.116;2023-09-19T14:50:51;1.95;;;0.60;;
25279;SDS011;13225;47.804;12.116;2023-09-19T14:53:17;1.55;;;0.63;;
25279;SDS011;13225;47.804;12.116;2023-09-19T14:55:43;0.80;;;0.70;;
25279;SDS011;13225;47.804;12.116;2023-09-19T14:58:12;1.23;;;1.05;;
25279;SDS011;13225;47.804;12.116;2023-09-19T15:00:38;2.40;;;0.77;;
25279;SDS011;13225;47.804;12.116;2023-09-19T15:03:04;1.52;;;0.70;;
25279;SDS011;13225;47.804;12.116;2023-09-19T15:05:30;2.55;;;0.70;;
25279;SDS011;13225;47.804;12.116;2023-09-19T15:07:56;1.48;;;0.75;;
25279;SDS011;13225;47.804;12.116;2023-09-19T15:10:23;0.50;;;0.50;;
25279;SDS011;13225;47.804;12.116;2023-09-19T15:12:48;1.10;;;0.70;;
25279;SDS011;13225;47.804;12.116;2023-09-19T15:15:14;1.05;;;0.93;;
25279;SDS011;13225;47.804;12.116;2023-09-19T15:17:41;0.88;;;0.80;;
25279;SDS011;13225;47.804;12.116;2023-09-19T15:20:07;0.70;;;0.60;;
25279;SDS011;13225;47.804;12.116;2023-09-19T15:22:33;0.95;;;0.80;;
25279;SDS011;13225;47.804;12.116;2023-09-19T15:25:02;1.73;;;0.70;;
25279;SDS011;13225;47.804;12.116;2023-09-19T15:27:29;1.50;;;0.77;;
25279;SDS011;13225;47.804;12.116;2023-09-19T15:29:56;2.33;;;0.80;;
25279;SDS011;13225;47.804;12.116;2023-09-19T15:32:23;1.10;;;0.52;;
25279;SDS011;13225;47.804;12.116;2023-09-19T15:34:49;1.35;;;0.60;;
25279;SDS011;13225;47.804;12.116;2023-09-19T15:37:15;0.50;;;0.50;;
25279;SDS011;13225;47.804;12.116;2023-09-19T15:39:41;0.95;;;0.60;;
25279;SDS011;13225;47.804;12.116;2023-09-19T15:42:06;1.45;;;0.65;;
25279;SDS011;13225;47.804;12.116;2023-09-19T15:44:32;0.90;;;0.82;;
25279;SDS011;13225;47.804;12.116;2023-09-19T15:46:58;1.13;;;0.82;;
25279;SDS011;13225;47.804;12.116;2023-09-19T15:49:25;1.33;;;0.60;;